Time;durP1;ratioP1;P1;durP2;ratioP2;P2;SDS_P1;SDS_P2;PMS_P1;PMS_P2;Temp;Humidity;BMP_temperature;BMP_pressure;BME280_temperature;BME280_humidity;BME280_pressure;Samples;Min_cycle;Max_cycle;Signal;HPM_P1;HPM_P2
2023/07/27 00:01:44;;;;;;;2.30;2.10;;;21.40;52.90;;;;;;5052389;28;20219;-78
2023/07/27 00:04:12;;;;;;;2.33;2.13;;;21.40;53.00;;;;;;5052381;28;20613;-78
2023/07/27 00:06:39;;;;;;;2.35;2.10;;;21.40;53.10;;;;;;5036583;28;20539;-78
2023/07/27 00:09:08;;;;;;;2.65;1.90;;;21.40;52.90;;;;;;5052444;28;20230;-78
2023/07/27 00:11:34;;;;;;;2.08;1.88;;;21.40;53.00;;;;;;5035660;28;20223;-78
2023/07/27 00:14:02;;;;;;;2.50;2.08;;;21.40;53.10;;;;;;5053295;28;20203;-78
2023/07/27 00:16:29;;;;;;;2.30;2.10;;;21.30;53.00;;;;;;5052297;28;20206;-78
2023/07/27 00:18:56;;;;;;;2.28;1.92;;;21.40;53.10;;;;;;5052516;28;20227;-78
2023/07/27 00:21:23;;;;;;;2.22;2.03;;;21.30;53.10;;;;;;5052878;28;20215;-78
2023/07/27 00:23:50;;;;;;;2.15;1.95;;;21.30;53.10;;;;;;5054121;28;20188;-78
2023/07/27 00:26:19;;;;;;;2.13;1.80;;;21.30;53.20;;;;;;5053973;28;20253;-78
2023/07/27 00:28:46;;;;;;;2.15;2.00;;;21.20;53.00;;;;;;5037048;28;20689;-78
2023/07/27 00:31:13;;;;;;;2.13;2.00;;;21.30;53.20;;;;;;5052526;28;20215;-78
2023/07/27 00:33:41;;;;;;;2.30;2.10;;;21.30;53.70;;;;;;5052675;28;20229;-78
2023/07/27 00:36:08;;;;;;;2.28;2.08;;;21.20;53.10;;;;;;5052263;28;20210;-78
2023/07/27 00:38:35;;;;;;;2.40;2.20;;;21.30;53.30;;;;;;5051997;28;20218;-78
2023/07/27 00:41:04;;;;;;;2.50;2.22;;;21.20;53.20;;;;;;5052147;28;20216;-78
2023/07/27 00:43:33;;;;;;;2.30;2.10;;;21.20;53.20;;;;;;5052060;28;20191;-78
2023/07/27 00:46:00;;;;;;;2.35;2.15;;;21.20;53.20;;;;;;5054521;28;20237;-78
2023/07/27 00:48:28;;;;;;;2.20;2.05;;;21.20;53.30;;;;;;5056748;28;20539;-78
2023/07/27 00:50:55;;;;;;;2.42;2.22;;;21.20;53.20;;;;;;5056194;28;20219;-78
2023/07/27 00:53:23;;;;;;;2.50;2.30;;;21.20;53.20;;;;;;5058549;28;20206;-78
2023/07/27 00:55:50;;;;;;;2.10;2.00;;;21.20;53.20;;;;;;5080303;28;20182;-78
2023/07/27 00:58:17;;;;;;;2.08;1.92;;;21.20;53.20;;;;;;5079886;28;20219;-77
2023/07/27 01:00:46;;;;;;;2.33;2.13;;;21.20;53.30;;;;;;5059715;28;20732;-78
2023/07/27 01:03:13;;;;;;;2.65;2.10;;;21.20;53.20;;;;;;5055769;28;20203;-78
2023/07/27 01:05:40;;;;;;;2.45;2.10;;;21.20;53.20;;;;;;5055878;28;20567;-78
2023/07/27 01:08:08;;;;;;;2.38;2.17;;;21.20;53.40;;;;;;5055494;28;20199;-78
2023/07/27 01:10:41;;;;;;;2.10;1.90;;;21.20;53.30;;;;;;5055353;28;20230;-78
2023/07/27 01:13:12;;;;;;;2.65;2.10;;;21.20;53.20;;;;;;5056327;28;20249;-79
2023/07/27 01:15:42;;;;;;;2.65;2.22;;;21.20;53.40;;;;;;5055824;28;20202;-79
2023/07/27 01:18:13;;;;;;;2.78;1.98;;;21.20;53.30;;;;;;5055374;28;20234;-79
2023/07/27 01:20:46;;;;;;;2.45;2.25;;;21.20;53.20;;;;;;5055138;28;20223;-79
2023/07/27 01:23:54;;;;;;;2.35;2.13;;;21.20;53.40;;;;;;5055028;28;20200;-79
2023/07/27 01:26:47;;;;;;;2.30;2.10;;;21.20;53.20;;;;;;5054962;28;20203;-79
2023/07/27 01:29:27;;;;;;;2.17;1.98;;;21.20;53.90;;;;;;5054876;28;20213;-79
2023/07/27 01:31:56;;;;;;;2.28;2.08;;;21.20;53.40;;;;;;5054762;28;20219;-79
2023/07/27 01:34:26;;;;;;;2.60;2.28;;;21.20;53.30;;;;;;5054840;28;20206;-77
2023/07/27 01:36:56;;;;;;;2.00;1.90;;;21.20;53.40;;;;;;5054818;28;20191;-78
2023/07/27 01:39:23;;;;;;;2.40;2.20;;;21.20;53.30;;;;;;5054619;28;20226;-78
2023/07/27 01:41:50;;;;;;;2.33;2.00;;;21.20;53.90;;;;;;5037739;28;20582;-78
2023/07/27 01:44:17;;;;;;;2.30;2.10;;;21.10;53.20;;;;;;5055466;28;20203;-78
2023/07/27 01:46:44;;;;;;;2.60;2.40;;;21.20;53.20;;;;;;5054485;28;20203;-78
2023/07/27 01:49:13;;;;;;;2.33;2.10;;;21.20;53.20;;;;;;5055071;28;20554;-78
2023/07/27 01:51:40;;;;;;;2.38;2.28;;;21.20;53.20;;;;;;5054749;28;20302;-78
2023/07/27 01:54:07;;;;;;;2.20;2.00;;;21.20;53.20;;;;;;5054488;28;20203;-78
2023/07/27 01:56:34;;;;;;;2.60;2.40;;;21.20;53.20;;;;;;5054324;28;20199;-78
2023/07/27 01:59:01;;;;;;;1.90;1.80;;;21.20;53.10;;;;;;5054156;28;20223;-78
2023/07/27 02:01:28;;;;;;;2.22;2.03;;;21.20;53.20;;;;;;5054437;28;20235;-78
2023/07/27 02:03:56;;;;;;;2.30;2.10;;;21.20;53.20;;;;;;5054713;28;20195;-78
2023/07/27 02:06:25;;;;;;;2.13;1.88;;;21.20;53.00;;;;;;5054390;28;20234;-78
2023/07/27 02:08:51;;;;;;;2.17;1.98;;;21.20;53.20;;;;;;5054734;28;20195;-78
2023/07/27 02:11:20;;;;;;;2.47;2.28;;;21.10;53.20;;;;;;5055220;28;20219;-78
2023/07/27 02:13:54;;;;;;;2.28;2.08;;;21.10;53.10;;;;;;5054824;28;20198;-78
2023/07/27 02:16:26;;;;;;;2.20;2.00;;;21.10;53.00;;;;;;5037992;28;20203;-78
2023/07/27 02:18:53;;;;;;;3.00;2.22;;;21.10;53.20;;;;;;5054065;28;20219;-78
2023/07/27 02:21:20;;;;;;;2.25;2.05;;;21.10;53.10;;;;;;5054092;28;20340;-78
2023/07/27 02:23:49;;;;;;;2.20;2.00;;;21.10;53.60;;;;;;5037643;28;20214;-77
2023/07/27 02:26:15;;;;;;;2.25;2.05;;;21.10;53.00;;;;;;5054505;28;20199;-77
2023/07/27 02:28:43;;;;;;;2.17;1.98;;;21.10;53.20;;;;;;5054548;28;20282;-77
2023/07/27 02:31:10;;;;;;;2.40;2.20;;;21.10;53.20;;;;;;5055011;28;20225;-77
2023/07/27 02:33:38;;;;;;;2.05;1.85;;;21.10;53.10;;;;;;5055749;28;20196;-77
2023/07/27 02:36:05;;;;;;;2.42;2.22;;;21.10;53.20;;;;;;5055330;28;20192;-77
2023/07/27 02:38:36;;;;;;;2.28;2.08;;;21.10;53.20;;;;;;5038102;28;20215;-77
2023/07/27 02:41:05;;;;;;;1.98;1.88;;;21.10;53.10;;;;;;5054460;28;20238;-77
2023/07/27 02:43:32;;;;;;;2.38;2.17;;;21.10;53.20;;;;;;5053985;28;20188;-77
2023/07/27 02:45:59;;;;;;;2.40;2.03;;;21.10;53.10;;;;;;5020842;28;20616;-77
2023/07/27 02:48:27;;;;;;;2.20;2.10;;;21.00;53.10;;;;;;5053409;28;20282;-77
2023/07/27 02:50:54;;;;;;;2.42;2.22;;;21.00;53.20;;;;;;5053394;28;20611;-77
2023/07/27 02:53:21;;;;;;;2.20;2.00;;;21.00;53.20;;;;;;5054710;28;20282;-77
2023/07/27 02:55:57;;;;;;;2.20;2.00;;;21.00;53.20;;;;;;5054486;28;20242;-77
2023/07/27 02:58:26;;;;;;;2.30;2.10;;;21.00;53.30;;;;;;5053446;28;20231;-77
2023/07/27 03:00:53;;;;;;;2.38;2.17;;;21.00;53.30;;;;;;5053312;28;20696;-77
2023/07/27 03:03:21;;;;;;;2.53;2.33;;;21.00;53.40;;;;;;5053205;28;20544;-77
2023/07/27 03:05:49;;;;;;;2.85;2.20;;;21.00;53.30;;;;;;5054426;28;20191;-77
2023/07/27 03:08:18;;;;;;;1.92;1.83;;;21.00;53.20;;;;;;5054244;28;20206;-77
2023/07/27 03:10:46;;;;;;;2.80;2.40;;;21.00;53.10;;;;;;5053875;28;20698;-77
2023/07/27 03:13:14;;;;;;;2.92;2.20;;;21.00;53.10;;;;;;5053218;28;20199;-77
2023/07/27 03:15:42;;;;;;;2.30;2.10;;;21.00;53.40;;;;;;5053095;28;20219;-77
2023/07/27 03:18:09;;;;;;;2.30;2.10;;;21.00;53.30;;;;;;5052813;28;20195;-77
2023/07/27 03:20:40;;;;;;;2.60;2.40;;;21.00;53.40;;;;;;5052768;28;20238;-77
2023/07/27 03:23:07;;;;;;;2.65;2.17;;;21.10;53.40;;;;;;5052849;28;20231;-77
2023/07/27 03:25:34;;;;;;;2.40;2.20;;;21.10;53.40;;;;;;5053029;28;20204;-77
2023/07/27 03:28:02;;;;;;;2.45;2.15;;;21.10;53.30;;;;;;5053015;28;20297;-77
2023/07/27 03:30:29;;;;;;;2.70;2.03;;;21.20;53.90;;;;;;5053435;28;20262;-77
2023/07/27 03:32:57;;;;;;;2.15;1.95;;;21.20;53.10;;;;;;5053220;28;20214;-77
2023/07/27 03:35:24;;;;;;;2.20;2.00;;;21.30;53.00;;;;;;5053017;28;20727;-77
2023/07/27 03:37:51;;;;;;;2.42;2.08;;;21.30;52.80;;;;;;5053235;28;20226;-77
2023/07/27 03:40:19;;;;;;;2.53;2.33;;;21.30;52.70;;;;;;5053055;28;20696;-77
2023/07/27 03:42:46;;;;;;;2.10;2.00;;;21.40;52.80;;;;;;5037161;28;20195;-77
2023/07/27 03:45:14;;;;;;;2.50;2.30;;;21.40;52.70;;;;;;5053161;28;20199;-78
2023/07/27 03:47:41;;;;;;;2.50;2.30;;;21.40;52.60;;;;;;5053665;28;20192;-78
2023/07/27 03:50:10;;;;;;;3.13;2.00;;;21.40;52.60;;;;;;5052865;28;20211;-78
2023/07/27 03:52:37;;;;;;;2.35;2.15;;;21.40;52.50;;;;;;5053616;28;20685;-78
2023/07/27 03:55:09;;;;;;;2.45;2.25;;;21.40;52.40;;;;;;5053625;28;20191;-78
2023/07/27 03:57:36;;;;;;;2.40;2.20;;;21.40;52.50;;;;;;5037274;28;20199;-78
2023/07/27 04:00:03;;;;;;;2.10;2.00;;;21.40;52.50;;;;;;5053797;28;20219;-78
2023/07/27 04:02:41;;;;;;;2.40;2.20;;;21.50;52.30;;;;;;5056870;28;20210;-78
2023/07/27 04:05:09;;;;;;;2.50;2.30;;;21.50;52.50;;;;;;5075599;28;20214;-78
2023/07/27 04:07:37;;;;;;;2.53;2.33;;;21.40;52.30;;;;;;5061099;28;20223;-78
2023/07/27 04:10:04;;;;;;;2.20;2.00;;;21.50;52.50;;;;;;5052807;28;20199;-78
2023/07/27 04:12:33;;;;;;;2.50;2.30;;;21.50;52.30;;;;;;5053224;28;20199;-78
2023/07/27 04:14:59;;;;;;;2.28;2.08;;;21.50;52.30;;;;;;5054244;28;20245;-78
2023/07/27 04:17:26;;;;;;;2.75;2.42;;;21.50;52.30;;;;;;5053473;28;20653;-79
2023/07/27 04:19:54;;;;;;;2.30;2.10;;;21.50;52.30;;;;;;5054345;28;20258;-79
2023/07/27 04:22:22;;;;;;;2.65;2.45;;;21.50;52.30;;;;;;5071692;28;20202;-77
2023/07/27 04:24:50;;;;;;;2.20;2.00;;;21.50;52.20;;;;;;5061577;28;20195;-78
2023/07/27 04:27:17;;;;;;;2.40;2.20;;;21.50;52.30;;;;;;5059146;28;20205;-77
2023/07/27 04:29:44;;;;;;;2.85;2.38;;;21.50;52.20;;;;;;5057718;28;20206;-77
2023/07/27 04:32:11;;;;;;;2.13;1.98;;;21.50;52.00;;;;;;5058772;28;20282;-78
2023/07/27 04:34:39;;;;;;;3.70;2.10;;;21.50;51.80;;;;;;5056839;28;20217;-78
2023/07/27 04:37:06;;;;;;;2.25;2.05;;;21.50;51.80;;;;;;5056448;28;20210;-78
2023/07/27 04:39:34;;;;;;;2.28;2.08;;;21.50;51.70;;;;;;5056490;28;20563;-78
2023/07/27 04:42:01;;;;;;;2.20;2.10;;;21.50;51.50;;;;;;5056666;28;20269;-78
2023/07/27 04:44:28;;;;;;;2.78;2.30;;;21.50;51.40;;;;;;5040807;28;20264;-78
2023/07/27 04:46:55;;;;;;;2.90;2.35;;;21.50;51.50;;;;;;5056983;28;20199;-78
2023/07/27 04:49:22;;;;;;;2.22;2.03;;;21.50;51.40;;;;;;5057664;28;20522;-78
2023/07/27 04:51:49;;;;;;;2.35;2.15;;;21.50;51.40;;;;;;5058408;28;20212;-78
2023/07/27 04:54:16;;;;;;;4.10;2.40;;;21.50;51.50;;;;;;5058979;28;20286;-77
2023/07/27 04:56:44;;;;;;;2.55;2.35;;;21.50;51.50;;;;;;5059682;28;20187;-77
2023/07/27 04:59:12;;;;;;;2.50;2.30;;;21.50;51.40;;;;;;5057244;28;20226;-78
2023/07/27 05:01:39;;;;;;;2.60;2.40;;;21.50;51.40;;;;;;5057020;28;20269;-78
2023/07/27 05:04:06;;;;;;;2.40;2.20;;;21.50;51.50;;;;;;5057047;28;20261;-78
2023/07/27 05:06:34;;;;;;;3.42;2.28;;;21.50;51.40;;;;;;5056850;28;20527;-78
2023/07/27 05:09:01;;;;;;;2.55;2.35;;;21.50;51.40;;;;;;5056138;28;20653;-78
2023/07/27 05:11:29;;;;;;;2.67;2.47;;;21.50;51.50;;;;;;5057039;28;20227;-78
2023/07/27 05:13:57;;;;;;;2.47;2.28;;;21.50;51.50;;;;;;5056191;28;20265;-78
2023/07/27 05:16:25;;;;;;;2.28;2.08;;;21.50;52.30;;;;;;5039362;28;20195;-78
2023/07/27 05:18:52;;;;;;;2.65;2.45;;;21.50;51.70;;;;;;5040371;28;20195;-78
2023/07/27 05:21:20;;;;;;;2.97;2.10;;;21.60;51.80;;;;;;5055696;28;20225;-78
2023/07/27 05:23:46;;;;;;;2.60;2.40;;;21.50;51.90;;;;;;5055320;28;20206;-78
2023/07/27 05:26:13;;;;;;;2.92;2.30;;;21.50;51.70;;;;;;5055823;28;20191;-78
2023/07/27 05:28:40;;;;;;;2.97;2.00;;;21.50;51.90;;;;;;5055698;28;20566;-78
2023/07/27 05:31:09;;;;;;;2.40;2.20;;;21.60;51.90;;;;;;5054793;28;20243;-77
2023/07/27 05:33:36;;;;;;;2.67;2.42;;;21.50;51.60;;;;;;5055019;28;20215;-78
2023/07/27 05:36:03;;;;;;;2.30;2.10;;;21.50;51.70;;;;;;5056350;28;20195;-78
2023/07/27 05:38:30;;;;;;;2.28;2.08;;;21.60;51.90;;;;;;5055838;28;20201;-78
2023/07/27 05:41:00;;;;;;;2.30;2.10;;;21.50;51.70;;;;;;5055687;28;20238;-78
2023/07/27 05:43:27;;;;;;;2.97;2.28;;;21.60;51.80;;;;;;5056309;28;20258;-78
2023/07/27 05:45:54;;;;;;;2.28;2.03;;;21.60;51.70;;;;;;5056011;28;20195;-78
2023/07/27 05:48:22;;;;;;;2.60;2.40;;;21.60;51.50;;;;;;5055301;28;20203;-78
2023/07/27 05:50:49;;;;;;;3.05;2.08;;;21.70;51.50;;;;;;5055615;28;20756;-78
2023/07/27 05:53:16;;;;;;;2.60;2.40;;;21.60;51.50;;;;;;5056096;28;20195;-78
2023/07/27 05:55:43;;;;;;;2.17;1.98;;;21.70;51.50;;;;;;5055129;28;20199;-78
2023/07/27 05:58:10;;;;;;;2.13;2.03;;;21.70;51.50;;;;;;5054779;28;20615;-78
2023/07/27 06:00:37;;;;;;;2.38;2.17;;;21.70;51.60;;;;;;5054586;28;20227;-78
2023/07/27 06:03:04;;;;;;;2.65;2.08;;;21.70;51.50;;;;;;5054803;28;20215;-78
2023/07/27 06:05:33;;;;;;;2.90;2.20;;;21.70;51.60;;;;;;5055690;28;20199;-79
2023/07/27 06:08:00;;;;;;;2.38;2.17;;;21.70;51.50;;;;;;5054518;28;20203;-79
2023/07/27 06:10:27;;;;;;;2.22;2.03;;;21.70;51.70;;;;;;5054401;28;20281;-79
2023/07/27 06:12:54;;;;;;;2.30;2.10;;;21.70;52.00;;;;;;5056251;28;20192;-79
2023/07/27 06:15:21;;;;;;;2.10;2.00;;;21.70;52.10;;;;;;5054866;28;20195;-79
2023/07/27 06:17:48;;;;;;;2.28;2.08;;;21.70;52.00;;;;;;5038234;28;20200;-79
2023/07/27 06:20:15;;;;;;;2.35;2.15;;;21.80;52.00;;;;;;5054393;28;20232;-79
2023/07/27 06:22:43;;;;;;;2.40;2.20;;;21.80;51.90;;;;;;5054528;28;20192;-79
2023/07/27 06:25:10;;;;;;;2.55;2.10;;;21.90;51.80;;;;;;5054186;28;20196;-79
2023/07/27 06:27:37;;;;;;;2.33;1.85;;;21.90;51.90;;;;;;5055510;28;20216;-79
2023/07/27 06:30:05;;;;;;;2.38;2.05;;;21.90;51.80;;;;;;5054065;28;20202;-79
2023/07/27 06:32:32;;;;;;;1.90;1.80;;;22.00;51.80;;;;;;5054248;28;20222;-79
2023/07/27 06:34:59;;;;;;;2.28;2.08;;;22.10;51.80;;;;;;5053951;28;20198;-79
2023/07/27 06:37:26;;;;;;;2.90;2.20;;;22.10;51.60;;;;;;5053828;28;20654;-79
2023/07/27 06:39:54;;;;;;;2.20;2.00;;;22.30;51.40;;;;;;5054105;28;20219;-79
2023/07/27 06:42:21;;;;;;;2.13;1.92;;;22.40;51.20;;;;;;5053762;28;20199;-79
2023/07/27 06:44:48;;;;;;;1.95;1.85;;;22.50;51.00;;;;;;5053707;28;20202;-79
2023/07/27 06:47:15;;;;;;;2.08;1.98;;;22.60;50.80;;;;;;5053771;28;20202;-79
2023/07/27 06:49:42;;;;;;;2.35;2.15;;;22.60;50.70;;;;;;5053780;28;20202;-79
2023/07/27 06:52:09;;;;;;;2.05;1.85;;;22.70;50.60;;;;;;5053843;28;20247;-79
2023/07/27 06:54:36;;;;;;;2.33;2.13;;;22.70;50.40;;;;;;5054371;28;20199;-79
2023/07/27 06:57:07;;;;;;;2.10;1.92;;;22.80;50.30;;;;;;5054914;28;20206;-79
2023/07/27 06:59:34;;;;;;;1.80;1.70;;;22.80;50.30;;;;;;5053912;28;20210;-79
2023/07/27 07:02:02;;;;;;;2.50;2.30;;;22.90;50.20;;;;;;5053612;28;20230;-79
2023/07/27 07:04:31;;;;;;;2.15;2.00;;;22.90;50.20;;;;;;5036852;28;20199;-79
2023/07/27 07:06:58;;;;;;;1.90;1.80;;;22.90;50.00;;;;;;5053349;28;20205;-79
2023/07/27 07:09:25;;;;;;;2.30;2.10;;;22.90;49.90;;;;;;5053847;28;20200;-78
2023/07/27 07:11:52;;;;;;;1.88;1.77;;;23.00;49.90;;;;;;5055176;28;20548;-78
2023/07/27 07:14:21;;;;;;;2.00;1.80;;;23.00;49.90;;;;;;5053777;28;20584;-78
2023/07/27 07:16:48;;;;;;;2.10;1.90;;;23.00;49.90;;;;;;5053179;28;20204;-78
2023/07/27 07:19:15;;;;;;;2.30;2.10;;;23.00;50.00;;;;;;5052883;28;20195;-78
2023/07/27 07:21:42;;;;;;;2.03;1.83;;;23.00;49.90;;;;;;5054162;28;20221;-78
2023/07/27 07:24:09;;;;;;;1.90;1.70;;;23.00;50.00;;;;;;5054090;28;20191;-78
2023/07/27 07:26:36;;;;;;;1.95;1.80;;;23.00;50.00;;;;;;5053114;28;20725;-78
2023/07/27 07:29:02;;;;;;;2.00;1.90;;;23.00;50.00;;;;;;5053440;28;20199;-78
2023/07/27 07:31:31;;;;;;;1.95;1.80;;;23.00;50.00;;;;;;5054012;28;20601;-78
2023/07/27 07:33:58;;;;;;;1.70;1.60;;;23.00;50.00;;;;;;5052859;28;20218;-78
2023/07/27 07:36:25;;;;;;;2.10;1.90;;;23.00;49.90;;;;;;5053326;28;20196;-78
2023/07/27 07:38:52;;;;;;;1.83;1.73;;;23.10;50.00;;;;;;5053837;28;20203;-78
2023/07/27 07:41:19;;;;;;;1.90;1.80;;;23.10;49.90;;;;;;5053712;28;20231;-78
2023/07/27 07:43:46;;;;;;;1.98;1.88;;;23.10;49.90;;;;;;5072345;28;20201;-78
2023/07/27 07:46:13;;;;;;;1.77;1.67;;;23.10;49.90;;;;;;5058365;28;20688;-78
2023/07/27 07:48:41;;;;;;;2.22;1.75;;;23.10;49.90;;;;;;5053231;28;20217;-78
2023/07/27 07:51:10;;;;;;;2.03;1.90;;;23.10;49.90;;;;;;5051969;28;20214;-78
2023/07/27 07:53:38;;;;;;;1.92;1.83;;;23.00;49.90;;;;;;5076959;28;20176;-78
2023/07/27 07:56:05;;;;;;;2.10;1.90;;;23.00;49.90;;;;;;5066173;28;20191;-78
2023/07/27 07:58:32;;;;;;;1.70;1.60;;;23.00;50.00;;;;;;5052327;28;20231;-78
2023/07/27 08:00:59;;;;;;;1.83;1.73;;;23.00;50.00;;;;;;5052396;28;20297;-78
2023/07/27 08:03:26;;;;;;;2.47;2.00;;;23.00;50.00;;;;;;5052714;28;20206;-78
2023/07/27 08:05:54;;;;;;;1.70;1.60;;;23.00;50.10;;;;;;5052821;28;20630;-78
2023/07/27 08:08:21;;;;;;;1.63;1.52;;;23.00;50.10;;;;;;5052969;28;20238;-78
2023/07/27 08:10:48;;;;;;;1.80;1.70;;;23.00;50.10;;;;;;5052877;28;20229;-78
2023/07/27 08:13:16;;;;;;;2.15;1.88;;;23.00;50.10;;;;;;5052424;28;20646;-78
2023/07/27 08:15:51;;;;;;;1.90;1.80;;;23.00;50.10;;;;;;5052278;28;20203;-78
2023/07/27 08:18:18;;;;;;;2.00;1.83;;;23.00;50.10;;;;;;5052653;28;20190;-78
2023/07/27 08:20:45;;;;;;;1.85;1.75;;;23.00;50.10;;;;;;5052596;28;20590;-78
2023/07/27 08:23:14;;;;;;;1.70;1.60;;;23.00;50.10;;;;;;5052268;28;20282;-78
2023/07/27 08:25:42;;;;;;;1.80;1.70;;;23.00;50.10;;;;;;5052798;28;20195;-78
2023/07/27 08:28:09;;;;;;;1.90;1.80;;;23.00;50.10;;;;;;5036204;28;20294;-78
2023/07/27 08:30:36;;;;;;;1.95;1.80;;;23.00;50.00;;;;;;5052463;28;20216;-78
2023/07/27 08:33:03;;;;;;;2.20;1.92;;;23.00;50.00;;;;;;5052528;28;20296;-78
2023/07/27 08:35:30;;;;;;;1.60;1.50;;;23.00;50.10;;;;;;5035615;28;20195;-78
2023/07/27 08:37:57;;;;;;;1.83;1.73;;;23.00;50.00;;;;;;5035856;28;20227;-78
2023/07/27 08:40:26;;;;;;;1.70;1.60;;;23.00;50.00;;;;;;5052010;28;20225;-78
2023/07/27 08:42:53;;;;;;;1.92;1.77;;;23.00;50.00;;;;;;5053074;28;20199;-78
2023/07/27 08:45:21;;;;;;;1.55;1.45;;;23.10;50.00;;;;;;5052886;28;20200;-78
2023/07/27 08:47:48;;;;;;;1.98;1.83;;;23.00;50.00;;;;;;5052051;28;20253;-78
2023/07/27 08:50:16;;;;;;;2.17;1.80;;;23.00;50.00;;;;;;5052462;28;20580;-78
2023/07/27 08:52:43;;;;;;;1.83;1.73;;;23.00;50.10;;;;;;5053433;28;20187;-78
2023/07/27 08:55:10;;;;;;;1.90;1.80;;;23.00;50.10;;;;;;5052022;28;20206;-78
2023/07/27 08:57:39;;;;;;;2.00;1.90;;;23.00;50.10;;;;;;5019317;28;20203;-78
2023/07/27 09:00:09;;;;;;;2.05;1.85;;;23.10;50.10;;;;;;5051955;28;20337;-78
2023/07/27 09:02:38;;;;;;;1.75;1.65;;;23.10;50.20;;;;;;5056876;28;20238;-78
2023/07/27 09:05:06;;;;;;;1.80;1.70;;;23.10;50.10;;;;;;5037933;28;20207;-78
2023/07/27 09:07:33;;;;;;;1.90;1.80;;;23.10;50.10;;;;;;5037283;28;20203;-78
2023/07/27 09:10:01;;;;;;;1.75;1.65;;;23.10;50.00;;;;;;5055215;28;20199;-78
2023/07/27 09:12:27;;;;;;;1.63;1.52;;;23.10;50.00;;;;;;5055617;28;20295;-78
2023/07/27 09:14:56;;;;;;;1.88;1.77;;;23.10;50.00;;;;;;5055708;28;20199;-78
2023/07/27 09:17:23;;;;;;;1.77;1.65;;;23.10;50.00;;;;;;5056149;28;20536;-78
2023/07/27 09:19:50;;;;;;;1.90;1.80;;;23.20;50.00;;;;;;5055727;28;20241;-78
2023/07/27 09:22:17;;;;;;;1.80;1.70;;;23.20;49.80;;;;;;5055439;28;20222;-78
2023/07/27 09:24:44;;;;;;;1.80;1.70;;;23.20;49.90;;;;;;5055406;28;20199;-78
2023/07/27 09:27:12;;;;;;;1.70;1.60;;;23.10;49.80;;;;;;5055223;28;20207;-78
2023/07/27 09:29:39;;;;;;;1.52;1.42;;;23.20;50.00;;;;;;5038812;28;20286;-78
2023/07/27 09:32:10;;;;;;;2.15;1.70;;;23.20;50.00;;;;;;5055295;28;20241;-78
2023/07/27 09:34:37;;;;;;;1.70;1.60;;;23.20;50.60;;;;;;5055381;28;20215;-78
2023/07/27 09:37:05;;;;;;;1.85;1.70;;;23.10;50.00;;;;;;5055052;28;20200;-78
2023/07/27 09:39:33;;;;;;;1.60;1.50;;;23.10;50.00;;;;;;5055055;28;20203;-78
2023/07/27 09:42:00;;;;;;;1.80;1.65;;;23.10;50.00;;;;;;5055318;28;20216;-78
2023/07/27 09:44:27;;;;;;;1.48;1.38;;;23.10;50.00;;;;;;5054976;28;20739;-78
2023/07/27 09:46:54;;;;;;;1.90;1.80;;;23.20;50.10;;;;;;5038593;28;20199;-78
2023/07/27 09:49:22;;;;;;;1.67;1.58;;;23.20;50.10;;;;;;5054988;28;20674;-78
2023/07/27 09:51:49;;;;;;;2.03;1.80;;;23.20;50.10;;;;;;5055405;28;20281;-78
2023/07/27 09:54:16;;;;;;;1.77;1.67;;;23.10;50.00;;;;;;5054883;28;20207;-78
2023/07/27 09:56:43;;;;;;;2.00;1.80;;;23.20;50.10;;;;;;5054666;28;20199;-78
2023/07/27 09:59:10;;;;;;;1.60;1.50;;;23.20;50.10;;;;;;5055079;28;20207;-78
2023/07/27 10:01:37;;;;;;;1.80;1.70;;;23.20;50.20;;;;;;5054785;28;20567;-78
2023/07/27 10:04:04;;;;;;;2.35;1.55;;;23.20;50.10;;;;;;5054528;28;20646;-78
2023/07/27 10:06:33;;;;;;;1.73;1.63;;;23.10;50.10;;;;;;5056199;28;20196;-78
2023/07/27 10:09:00;;;;;;;1.67;1.58;;;23.20;50.30;;;;;;5054851;28;20202;-78
2023/07/27 10:11:31;;;;;;;1.60;1.50;;;23.20;50.30;;;;;;5054360;28;20215;-79
2023/07/27 10:13:58;;;;;;;1.70;1.60;;;23.20;50.20;;;;;;5054690;28;20202;-79
2023/07/27 10:16:27;;;;;;;1.70;1.60;;;23.20;50.10;;;;;;5051879;28;20218;-78
2023/07/27 10:18:55;;;;;;;2.10;1.90;;;23.10;50.10;;;;;;5054150;28;20227;-78
2023/07/27 10:21:23;;;;;;;1.63;1.48;;;23.20;50.20;;;;;;5054171;28;20222;-78
2023/07/27 10:23:56;;;;;;;1.70;1.60;;;23.20;50.20;;;;;;5037605;28;20565;-78
2023/07/27 10:26:51;;;;;;;1.92;1.67;;;23.20;50.20;;;;;;5054423;28;20199;-78
2023/07/27 10:29:19;;;;;;;1.70;1.60;;;23.20;50.30;;;;;;5055630;28;20242;-79
2023/07/27 10:31:47;;;;;;;1.83;1.73;;;23.20;50.20;;;;;;5055328;28;20644;-79
2023/07/27 10:34:15;;;;;;;1.60;1.50;;;23.20;50.20;;;;;;5053946;28;20202;-79
2023/07/27 10:36:49;;;;;;;1.95;1.80;;;23.20;50.20;;;;;;5053994;28;20608;-79
2023/07/27 10:39:18;;;;;;;2.30;1.75;;;23.20;50.10;;;;;;5053926;28;20191;-79
2023/07/27 10:41:58;;;;;;;2.00;1.90;;;23.30;50.20;;;;;;5054968;28;20227;-79
2023/07/27 10:44:26;;;;;;;1.77;1.67;;;23.20;50.10;;;;;;5053948;28;20187;-79
2023/07/27 10:46:55;;;;;;;1.52;1.42;;;23.30;50.10;;;;;;5053821;28;20671;-79
2023/07/27 10:49:22;;;;;;;1.85;1.70;;;23.30;50.10;;;;;;5053901;28;20693;-79
2023/07/27 10:51:49;;;;;;;1.85;1.75;;;23.30;50.00;;;;;;5036890;28;20246;-79
2023/07/27 10:54:18;;;;;;;1.45;1.35;;;23.30;50.00;;;;;;5037431;28;20207;-79
2023/07/27 10:56:45;;;;;;;2.10;1.50;;;23.40;50.00;;;;;;5053925;28;20204;-79
2023/07/27 10:59:12;;;;;;;1.58;1.48;;;23.40;50.00;;;;;;5053584;28;20577;-79
2023/07/27 11:01:41;;;;;;;1.60;1.50;;;23.40;49.90;;;;;;5054961;28;20208;-79
2023/07/27 11:04:08;;;;;;;1.52;1.42;;;23.40;49.80;;;;;;5053956;28;20206;-79
2023/07/27 11:06:43;;;;;;;1.70;1.60;;;23.40;49.80;;;;;;5053750;28;20221;-79
2023/07/27 11:09:18;;;;;;;1.73;1.58;;;23.40;49.80;;;;;;5053560;28;20205;-79
2023/07/27 11:11:45;;;;;;;1.70;1.60;;;23.50;49.70;;;;;;5053826;28;20211;-79
2023/07/27 11:14:12;;;;;;;1.75;1.65;;;23.40;49.80;;;;;;5054769;28;20206;-79
2023/07/27 11:16:39;;;;;;;2.30;1.70;;;23.40;49.80;;;;;;5054568;28;20203;-79
2023/07/27 11:19:08;;;;;;;2.03;1.67;;;23.40;49.80;;;;;;5058035;28;20213;-78
2023/07/27 11:21:38;;;;;;;1.60;1.50;;;23.40;49.80;;;;;;5061699;28;20278;-78
2023/07/27 11:24:05;;;;;;;1.60;1.50;;;23.50;49.80;;;;;;5063065;28;20211;-79
2023/07/27 11:26:33;;;;;;;1.52;1.42;;;23.50;49.70;;;;;;5053749;28;20655;-79
2023/07/27 11:29:00;;;;;;;1.60;1.50;;;23.50;49.70;;;;;;5053494;28;20202;-79
2023/07/27 11:31:28;;;;;;;1.70;1.60;;;23.50;49.60;;;;;;5053509;28;20755;-79
2023/07/27 11:33:57;;;;;;;1.58;1.48;;;23.50;49.60;;;;;;5053806;28;20234;-79
2023/07/27 11:36:28;;;;;;;1.40;1.30;;;23.50;49.60;;;;;;5053562;28;20208;-79
2023/07/27 11:38:55;;;;;;;1.70;1.60;;;23.50;49.60;;;;;;5054103;28;20215;-79
2023/07/27 11:41:22;;;;;;;1.65;1.55;;;23.50;49.60;;;;;;5038173;28;20216;-79
2023/07/27 11:43:53;;;;;;;1.55;1.45;;;23.50;49.50;;;;;;5037771;28;20204;-79
2023/07/27 11:46:20;;;;;;;1.63;1.52;;;23.50;49.60;;;;;;5054201;28;20290;-79
2023/07/27 11:48:49;;;;;;;1.67;1.58;;;23.50;49.80;;;;;;5054058;28;20253;-79
2023/07/27 11:51:18;;;;;;;1.65;1.52;;;23.50;49.80;;;;;;5053873;28;20314;-79
2023/07/27 11:53:45;;;;;;;1.70;1.60;;;23.50;49.90;;;;;;5053631;28;20226;-79
2023/07/27 11:56:12;;;;;;;1.88;1.50;;;23.40;49.90;;;;;;5053526;28;20605;-79
2023/07/27 11:58:39;;;;;;;1.83;1.73;;;23.50;50.00;;;;;;5053913;28;20196;-79
2023/07/27 12:01:08;;;;;;;2.03;1.88;;;23.50;50.00;;;;;;5062257;28;20242;-79
2023/07/27 12:03:35;;;;;;;1.70;1.60;;;23.50;49.90;;;;;;5073082;28;20233;-79
2023/07/27 12:06:02;;;;;;;1.48;1.38;;;23.50;49.90;;;;;;5060496;28;20184;-79
2023/07/27 12:08:30;;;;;;;1.75;1.65;;;23.50;49.90;;;;;;5077013;28;20191;-79
2023/07/27 12:10:59;;;;;;;1.88;1.77;;;23.50;49.80;;;;;;5057352;28;20223;-79
2023/07/27 12:13:26;;;;;;;1.48;1.38;;;23.50;49.80;;;;;;5055714;28;20557;-79
2023/07/27 12:15:57;;;;;;;1.73;1.60;;;23.50;49.80;;;;;;5056816;28;20191;-79
2023/07/27 12:18:26;;;;;;;1.73;1.63;;;23.60;49.80;;;;;;5053929;28;20199;-79
2023/07/27 12:20:54;;;;;;;1.40;1.30;;;23.60;49.80;;;;;;5054476;28;20246;-79
2023/07/27 12:23:21;;;;;;;1.52;1.42;;;23.60;49.70;;;;;;5053949;28;20260;-79
2023/07/27 12:25:47;;;;;;;1.52;1.42;;;23.60;49.70;;;;;;5054374;28;20711;-79
2023/07/27 12:28:14;;;;;;;1.75;1.52;;;23.60;49.70;;;;;;5054933;28;20199;-78
2023/07/27 12:30:42;;;;;;;1.60;1.50;;;23.60;49.60;;;;;;5054197;28;20215;-79
2023/07/27 12:33:09;;;;;;;1.70;1.60;;;23.60;49.60;;;;;;5038292;28;20184;-79
2023/07/27 12:35:37;;;;;;;1.60;1.50;;;23.70;49.70;;;;;;5054259;28;20206;-79
2023/07/27 12:38:04;;;;;;;1.50;1.40;;;23.70;49.70;;;;;;5054418;28;20196;-79
2023/07/27 12:40:31;;;;;;;1.70;1.60;;;23.70;49.80;;;;;;5054572;28;20223;-79
2023/07/27 12:42:58;;;;;;;1.55;1.45;;;23.70;49.60;;;;;;5057493;28;20656;-79
2023/07/27 12:45:26;;;;;;;2.03;1.70;;;23.70;49.70;;;;;;5057775;28;20195;-79
2023/07/27 12:47:53;;;;;;;2.38;1.77;;;23.80;50.70;;;;;;5057628;28;20200;-79
2023/07/27 12:50:21;;;;;;;3.58;1.65;;;23.70;50.50;;;;;;5056183;28;20310;-78
2023/07/27 12:52:49;;;;;;;1.98;1.45;;;23.80;50.80;;;;;;5056066;28;20689;-77